Aviation Digital Data Service (ADDS)

Output produced by TAFs form (0237 UTC 26 July 2016)
found at http://aviationweather.gov/adds/tafs/
 
KDMN 252356Z 2600/2624 09010KT P6SM FEW100 SCT250 
     FM262100 12008KT P6SM VCTS SCT090CB SCT150